createdAt,value
2018-02-16T07:00:57.282Z,8.77
2018-02-16T07:03:24.891Z,8.37
2018-02-16T07:05:52.508Z,9.63
2018-02-16T07:08:20.109Z,8.55
2018-02-16T07:10:47.806Z,7.87
2018-02-16T07:13:16.167Z,8.68
2018-02-16T07:15:44.527Z,8.73
2018-02-16T07:18:12.143Z,10.93
2018-02-16T07:20:39.764Z,9.25
2018-02-16T07:23:07.383Z,10.35
2018-02-16T07:25:35.735Z,9.50
2018-02-16T07:28:04.116Z,9.60
2018-02-16T07:30:31.708Z,8.50
2018-02-16T07:32:59.328Z,8.68
2018-02-16T07:35:26.920Z,8.48
2018-02-16T07:37:54.507Z,8.05
2018-02-16T07:40:22.127Z,7.85
2018-02-16T07:42:50.532Z,16.50
2018-02-16T07:45:18.124Z,26.12
2018-02-16T07:47:45.716Z,18.75
2018-02-16T07:50:13.340Z,11.12
2018-02-16T07:52:41.708Z,11.30
2018-02-16T07:55:10.120Z,12.00
2018-02-16T07:57:37.720Z,12.40
2018-02-16T08:00:05.324Z,11.27
2018-02-16T08:02:32.945Z,10.95
2018-02-16T08:05:00.616Z,10.30
2018-02-16T08:07:28.248Z,11.15
2018-02-16T08:09:55.849Z,11.98
2018-02-16T08:12:23.486Z,10.20
2018-02-16T08:14:51.844Z,8.40
2018-02-16T08:17:20.205Z,7.95
2018-02-16T08:19:48.586Z,7.90
2018-02-16T08:22:16.976Z,7.97
2018-02-16T08:24:44.568Z,7.57
2018-02-16T08:27:12.189Z,10.10
2018-02-16T08:29:39.808Z,9.60
2018-02-16T08:32:07.401Z,10.35
2018-02-16T08:34:34.995Z,10.40
2018-02-16T08:37:02.620Z,8.00
2018-02-16T08:39:30.980Z,8.10
2018-02-16T08:41:59.343Z,10.02
2018-02-16T08:44:26.993Z,9.77
2018-02-16T08:46:55.376Z,8.63
2018-02-16T08:49:23.080Z,7.78
2018-02-16T08:51:50.764Z,8.07
2018-02-16T08:54:18.525Z,12.35
2018-02-16T08:56:46.159Z,12.50
2018-02-16T08:59:13.804Z,7.97
2018-02-16T09:01:41.409Z,7.72
2018-02-16T09:04:09.051Z,6.40
2018-02-16T09:06:36.639Z,6.90
2018-02-16T09:09:05.323Z,6.65
2018-02-16T09:11:32.951Z,6.60
2018-02-16T09:14:01.308Z,6.82
2018-02-16T09:16:29.704Z,6.53
2018-02-16T09:18:57.292Z,6.20
2018-02-16T09:21:24.921Z,6.30
2018-02-16T09:23:52.560Z,7.07
2018-02-16T09:26:20.156Z,5.40
2018-02-16T09:28:48.516Z,5.87
2018-02-16T09:31:16.899Z,6.15
2018-02-16T09:33:44.504Z,6.15
2018-02-16T09:36:13.703Z,7.43
2018-02-16T09:38:42.855Z,7.18
2018-02-16T09:41:10.476Z,9.25
2018-02-16T09:43:38.063Z,8.10
2018-02-16T09:46:06.419Z,8.53
2018-02-16T09:48:34.072Z,10.23
2018-02-16T09:51:02.515Z,10.30
2018-02-16T09:53:30.136Z,9.55
2018-02-16T09:55:57.732Z,8.38
2018-02-16T09:58:26.108Z,7.60
2018-02-16T10:00:53.695Z,8.27
2018-02-16T10:03:21.323Z,10.85
2018-02-16T10:05:48.924Z,9.43
2018-02-16T10:08:17.307Z,9.45
2018-02-16T10:10:45.672Z,10.32
2018-02-16T10:13:13.302Z,10.20
2018-02-16T10:15:41.672Z,9.75
2018-02-16T10:18:10.068Z,10.48
2018-02-16T10:20:37.693Z,9.50
2018-02-16T10:23:05.290Z,12.20
2018-02-16T10:25:32.911Z,9.90
2018-02-16T10:28:00.503Z,9.95
2018-02-16T10:30:28.891Z,10.10
2018-02-16T10:32:57.242Z,9.30
2018-02-16T10:35:25.624Z,8.60
2018-02-16T10:37:53.244Z,9.20
2018-02-16T10:40:21.624Z,9.23
2018-02-16T10:42:50.017Z,10.73
2018-02-16T10:45:17.620Z,10.50
2018-02-16T10:47:45.238Z,12.33
2018-02-16T10:50:12.839Z,11.00
2018-02-16T10:52:40.432Z,9.67
2018-02-16T10:55:08.108Z,11.00
2018-02-16T10:57:37.279Z,10.88
2018-02-16T11:00:05.694Z,10.57
2018-02-16T11:05:39.831Z,11.02
2018-02-16T11:08:13.025Z,10.40
2018-02-16T11:10:40.648Z,10.33
2018-02-16T11:13:08.257Z,11.23
2018-02-16T11:15:35.905Z,12.55
2018-02-16T11:18:03.503Z,12.63
2018-02-16T11:20:31.091Z,10.37
2018-02-16T11:22:58.712Z,10.67
2018-02-16T11:25:27.074Z,9.88
2018-02-16T11:27:55.464Z,10.53
2018-02-16T11:30:23.064Z,11.23
2018-02-16T11:32:50.664Z,12.25
2018-02-16T11:35:18.297Z,11.23
2018-02-16T11:37:45.914Z,10.23
2018-02-16T11:40:13.565Z,10.40
2018-02-16T11:42:46.560Z,11.33
2018-02-16T11:45:14.544Z,10.73
2018-02-16T11:47:42.147Z,10.60
2018-02-16T11:50:10.605Z,12.13
2018-02-16T11:52:39.241Z,10.77
2018-02-16T11:55:06.888Z,11.40
2018-02-16T11:57:34.488Z,10.63
2018-02-16T12:00:02.086Z,11.32
2018-02-16T12:02:29.711Z,10.53
2018-02-16T12:04:57.307Z,12.60
2018-02-16T12:07:25.716Z,10.90
2018-02-16T12:09:53.303Z,11.77
2018-02-16T12:12:21.681Z,11.90
2018-02-16T12:14:50.071Z,11.40
2018-02-16T12:17:17.764Z,11.63
2018-02-16T12:19:45.364Z,12.83
2018-02-16T12:22:12.951Z,11.17
2018-02-16T12:24:40.583Z,11.30
2018-02-16T12:27:08.183Z,10.93
2018-02-16T12:29:36.604Z,12.23
2018-02-16T12:32:04.216Z,10.50
2018-02-16T12:34:36.268Z,11.80
2018-02-16T12:37:03.892Z,10.87
2018-02-16T12:39:32.252Z,11.77
2018-02-16T12:42:00.650Z,10.83
2018-02-16T12:44:28.310Z,10.43
2018-02-16T12:46:55.938Z,11.07
2018-02-16T12:49:23.532Z,11.20
2018-02-16T12:51:51.168Z,11.83
2018-02-16T12:54:18.907Z,11.30
2018-02-16T12:56:46.508Z,11.77
2018-02-16T12:59:14.135Z,12.67
2018-02-16T13:01:42.504Z,13.57
2018-02-16T13:04:10.887Z,15.23
2018-02-16T13:06:38.504Z,12.50
2018-02-16T13:09:07.639Z,12.80
2018-02-16T13:11:35.231Z,12.60
2018-02-16T13:14:02.892Z,12.00
2018-02-16T13:16:31.253Z,12.50
2018-02-16T13:18:59.674Z,13.50
2018-02-16T13:21:27.281Z,11.70
2018-02-16T13:23:55.060Z,13.43
2018-02-16T13:26:22.716Z,12.97
2018-02-16T13:28:50.310Z,11.40
2018-02-16T13:31:18.873Z,11.30
2018-02-16T13:33:47.235Z,11.50
2018-02-16T13:36:15.641Z,13.50
2018-02-16T13:38:43.266Z,12.33
2018-02-16T13:41:12.389Z,12.30
2018-02-16T13:43:41.132Z,12.00
2018-02-16T13:46:08.835Z,12.03
2018-02-16T13:48:37.208Z,12.23
2018-02-16T13:51:05.615Z,12.80
2018-02-16T13:53:33.232Z,12.03
2018-02-16T13:56:01.643Z,11.97
2018-02-16T13:58:32.271Z,12.60
2018-02-16T14:01:00.552Z,12.70
2018-02-16T14:03:28.687Z,11.90
2018-02-16T14:05:56.435Z,11.93
2018-02-16T14:08:24.034Z,12.10
2018-02-16T14:10:51.727Z,11.90
2018-02-16T14:13:20.120Z,12.30
2018-02-16T14:15:48.489Z,13.53
2018-02-16T14:18:16.898Z,13.50
2018-02-16T14:20:44.504Z,14.27
2018-02-16T14:23:16.029Z,13.03
2018-02-16T14:25:43.998Z,13.47
2018-02-16T14:28:12.365Z,13.97
2018-02-16T14:30:39.961Z,12.07
2018-02-16T14:33:07.615Z,12.87
2018-02-16T14:35:35.442Z,13.37
2018-02-16T14:38:03.060Z,12.50
2018-02-16T14:40:31.484Z,15.60
2018-02-16T14:42:59.124Z,15.00
2018-02-16T14:45:26.724Z,14.40
2018-02-16T14:47:54.324Z,14.40
2018-02-16T14:50:22.223Z,14.10
2018-02-16T14:52:49.823Z,13.53
2018-02-16T14:55:17.647Z,17.27
2018-02-16T14:57:45.251Z,14.40
2018-02-16T15:00:13.645Z,13.40
2018-02-16T15:02:41.241Z,14.13
2018-02-16T15:05:08.843Z,15.30
2018-02-16T15:07:36.713Z,13.63
2018-02-16T15:10:04.309Z,14.20
2018-02-16T15:12:32.696Z,15.40
2018-02-16T15:15:00.298Z,15.93
2018-02-16T15:17:28.688Z,15.77
2018-02-16T15:19:56.304Z,14.93
2018-02-16T15:22:23.935Z,14.37
2018-02-16T15:24:51.561Z,14.53
2018-02-16T15:27:19.160Z,15.13
2018-02-16T15:29:47.525Z,14.70
2018-02-16T15:32:15.911Z,14.03
2018-02-16T15:34:43.545Z,13.63
2018-02-16T15:37:11.147Z,13.73
2018-02-16T15:39:38.784Z,12.67
2018-02-16T15:42:06.388Z,13.13
2018-02-16T15:44:34.084Z,12.40
2018-02-16T15:47:01.708Z,12.63
2018-02-16T15:49:29.304Z,12.40
2018-02-16T15:51:57.692Z,12.10
2018-02-16T15:54:25.312Z,12.70
2018-02-16T15:56:53.673Z,13.10
2018-02-16T15:59:22.096Z,12.90
2018-02-16T16:01:49.726Z,12.83
2018-02-16T16:04:17.627Z,14.23
2018-02-16T16:06:45.383Z,13.97
2018-02-16T16:09:13.756Z,14.53
2018-02-16T16:11:41.914Z,15.50
2018-02-16T16:14:10.276Z,14.60
2018-02-16T16:16:38.640Z,14.17
2018-02-16T16:19:07.048Z,13.15
2018-02-16T16:21:34.648Z,13.73
2018-02-16T16:24:06.532Z,13.90
2018-02-16T16:26:34.215Z,13.48
2018-02-16T16:29:02.188Z,16.70
2018-02-16T16:31:30.587Z,20.13
2018-02-16T16:33:58.236Z,25.83
2018-02-16T16:36:26.628Z,26.83
2018-02-16T16:38:54.228Z,19.57
2018-02-16T16:41:21.833Z,17.30
2018-02-16T16:43:49.465Z,15.15
2018-02-16T16:46:17.071Z,14.00
2018-02-16T16:48:44.696Z,13.57
2018-02-16T16:51:13.090Z,14.83
2018-02-16T16:53:40.704Z,16.83
2018-02-16T16:56:09.100Z,19.47
2018-02-16T16:58:37.084Z,19.93
2018-02-16T17:01:04.980Z,20.97
2018-02-16T17:03:32.575Z,20.83
2018-02-16T17:06:00.315Z,21.17
2018-02-16T17:08:32.448Z,19.27
2018-02-16T17:11:01.214Z,18.23
2018-02-16T17:13:29.668Z,18.17
2018-02-16T17:15:58.033Z,17.90
2018-02-16T17:18:26.423Z,17.87
2018-02-16T17:20:54.052Z,16.30
2018-02-16T17:23:22.417Z,17.50
2018-02-16T17:25:50.048Z,16.87
2018-02-16T17:28:18.416Z,14.45
2018-02-16T17:30:46.835Z,14.27
2018-02-16T17:33:14.428Z,13.57
2018-02-16T17:35:42.792Z,14.05
2018-02-16T17:38:11.201Z,14.95
2018-02-16T17:40:38.976Z,17.30
2018-02-16T17:43:06.675Z,19.02
2018-02-16T17:45:34.367Z,18.45
2018-02-16T17:48:02.880Z,18.12
2018-02-16T17:50:30.592Z,18.62
2018-02-16T17:52:58.201Z,16.23
2018-02-16T17:55:25.977Z,16.55
2018-02-16T17:57:54.377Z,18.77
2018-02-16T18:00:22.768Z,16.70
2018-02-16T18:02:50.372Z,17.30
2018-02-16T18:05:18.012Z,15.97
2018-02-16T18:07:45.656Z,17.95
2018-02-16T18:10:13.255Z,18.13
2018-02-16T18:12:40.943Z,17.98
2018-02-16T18:15:08.581Z,17.85
2018-02-16T18:17:36.237Z,19.12
2018-02-16T18:20:03.900Z,18.83
2018-02-16T18:22:31.504Z,17.77
2018-02-16T18:24:59.124Z,20.47
2018-02-16T18:27:26.723Z,22.25
2018-02-16T18:29:54.370Z,21.50
2018-02-16T18:32:21.974Z,21.60
2018-02-16T18:34:49.576Z,20.45
2018-02-16T18:37:17.229Z,22.27
2018-02-16T18:39:45.607Z,23.83
2018-02-16T18:42:13.207Z,24.23
2018-02-16T18:44:40.832Z,26.50
2018-02-16T18:47:08.461Z,25.20
2018-02-16T18:49:36.088Z,20.65
2018-02-16T18:52:04.452Z,18.60
2018-02-16T18:54:32.847Z,18.80
2018-02-16T18:57:00.456Z,17.70
2018-02-16T18:59:28.847Z,18.65
2018-02-16T19:01:57.560Z,17.62
2018-02-16T19:04:25.172Z,16.80
2018-02-16T19:06:52.787Z,17.60
2018-02-16T19:09:22.756Z,20.77
2018-02-16T19:11:50.409Z,29.37
2018-02-16T19:14:18.016Z,33.03
2018-02-16T19:16:45.635Z,31.17
2018-02-16T19:19:13.235Z,29.05
2018-02-16T19:21:40.864Z,21.42
2018-02-16T19:24:08.508Z,17.62
2018-02-16T19:26:37.931Z,17.50
2018-02-16T19:29:05.561Z,16.92
2018-02-16T19:31:33.174Z,18.70
2018-02-16T19:34:00.776Z,17.70
2018-02-16T19:36:28.472Z,20.95
2018-02-16T19:39:01.023Z,19.80
2018-02-16T19:41:34.175Z,20.15
2018-02-16T19:44:02.087Z,18.67
2018-02-16T19:46:29.732Z,19.62
2018-02-16T19:48:57.340Z,21.27
2018-02-16T19:51:24.948Z,24.67
2018-02-16T19:53:52.581Z,25.12
2018-02-16T19:56:20.187Z,25.83
2018-02-16T19:58:47.816Z,27.17
2018-02-16T20:01:15.443Z,27.65
2018-02-16T20:03:43.881Z,26.58
2018-02-16T20:06:16.187Z,26.55
2018-02-16T20:08:43.956Z,24.58
2018-02-16T20:11:11.606Z,24.75
2018-02-16T20:13:39.211Z,25.60
2018-02-16T20:16:07.829Z,26.90
2018-02-16T20:18:35.581Z,24.37
2018-02-16T20:21:03.189Z,23.00
2018-02-16T20:23:34.762Z,26.67
2018-02-16T20:26:02.383Z,24.98
2018-02-16T20:28:30.011Z,25.02
2018-02-16T20:30:58.426Z,22.17
2018-02-16T20:33:26.034Z,22.25
2018-02-16T20:35:53.731Z,20.15
2018-02-16T20:38:21.362Z,20.67
2018-02-16T20:40:49.000Z,20.50
2018-02-16T20:43:16.658Z,20.12
2018-02-16T20:45:44.251Z,20.55
2018-02-16T20:48:12.645Z,20.55
2018-02-16T20:50:40.250Z,22.40
2018-02-16T20:53:07.883Z,20.08
2018-02-16T20:55:35.488Z,20.33
2018-02-16T20:58:03.093Z,20.60
2018-02-16T21:00:30.717Z,21.08
2018-02-16T21:02:58.320Z,21.95
2018-02-16T21:05:25.968Z,22.23
2018-02-16T21:07:53.578Z,21.45
2018-02-16T21:10:21.207Z,19.65
2018-02-16T21:12:48.831Z,19.30
2018-02-16T21:15:16.480Z,20.40
2018-02-16T21:17:44.103Z,19.95
2018-02-16T21:20:11.717Z,18.92
2018-02-16T21:22:39.350Z,19.45
2018-02-16T21:25:08.178Z,19.10
2018-02-16T21:27:35.775Z,17.20
2018-02-16T21:30:04.184Z,16.73
2018-02-16T21:32:31.788Z,19.50
2018-02-16T21:35:00.157Z,19.55
2018-02-16T21:37:28.552Z,18.58
2018-02-16T21:39:56.226Z,19.17
2018-02-16T21:42:23.832Z,19.65
2018-02-16T21:44:51.439Z,19.10
2018-02-16T21:47:19.064Z,19.08
2018-02-16T21:49:46.690Z,20.33
2018-02-16T21:52:14.310Z,17.80
2018-02-16T21:54:41.945Z,18.65
2018-02-16T21:57:10.315Z,22.58
2018-02-16T21:59:38.730Z,19.42
2018-02-16T22:02:06.332Z,18.20
2018-02-16T22:04:33.932Z,18.92
2018-02-16T22:07:01.573Z,18.65
2018-02-16T22:09:29.204Z,15.90
2018-02-16T22:11:56.841Z,18.33
2018-02-16T22:14:24.519Z,18.00
2018-02-16T22:16:52.129Z,18.92
2018-02-16T22:19:19.767Z,19.15
2018-02-16T22:21:47.384Z,17.83
2018-02-16T22:24:15.776Z,18.02
2018-02-16T22:26:43.380Z,17.75
2018-02-16T22:29:11.018Z,15.50
2018-02-16T22:31:38.653Z,17.65
2018-02-16T22:34:06.256Z,17.23
2018-02-16T22:36:33.880Z,15.77
2018-02-16T22:39:03.881Z,16.30
2018-02-16T22:41:32.277Z,16.00
2018-02-16T22:43:59.884Z,17.00
2018-02-16T22:46:27.489Z,16.05
2018-02-16T22:48:55.108Z,16.00
2018-02-16T22:51:22.811Z,14.75
2018-02-16T22:53:50.442Z,13.93
2018-02-16T22:56:18.031Z,13.10
2018-02-16T22:58:46.451Z,13.50
2018-02-16T23:01:14.048Z,14.50
2018-02-16T23:03:41.652Z,14.85
2018-02-16T23:06:09.285Z,12.90
2018-02-16T23:08:36.884Z,15.18
2018-02-16T23:11:05.248Z,13.40
2018-02-16T23:13:32.877Z,14.80
2018-02-16T23:16:00.500Z,14.75
2018-02-16T23:18:28.108Z,13.57
2018-02-16T23:20:55.733Z,14.63
2018-02-16T23:23:23.351Z,14.75
2018-02-16T23:25:50.951Z,14.35
2018-02-16T23:28:18.571Z,15.27
2018-02-16T23:30:46.176Z,14.15
2018-02-16T23:33:13.796Z,13.90
2018-02-16T23:35:41.391Z,14.35
2018-02-16T23:38:09.786Z,14.48
2018-02-16T23:40:37.394Z,14.45
2018-02-16T23:43:04.947Z,16.48
2018-02-16T23:45:32.584Z,16.58
2018-02-16T23:48:00.188Z,14.85
2018-02-16T23:50:28.553Z,14.93
2018-02-16T23:52:56.962Z,16.55
2018-02-16T23:55:24.561Z,16.17
2018-02-16T23:57:52.184Z,15.07
